sensor_id;sensor_type;location;lat;lon;timestamp;pressure;altitude;pressure_sealevel;temperature;humidity
29877;BME280;16750;49.002;9.204;2022-07-29T00:01:06;99132.56;;;18.95;100.00
29877;BME280;16750;49.002;9.204;2022-07-29T00:03:31;99136.03;;;18.88;100.00
29877;BME280;16750;49.002;9.204;2022-07-29T00:05:56;99140.41;;;18.86;100.00
29877;BME280;16750;49.002;9.204;2022-07-29T00:08:22;99135.84;;;18.77;100.00
29877;BME280;16750;49.002;9.204;2022-07-29T00:10:47;99135.75;;;18.71;100.00
29877;BME280;16750;49.002;9.204;2022-07-29T00:13:13;99127.72;;;18.65;100.00
29877;BME280;16750;49.002;9.204;2022-07-29T00:15:38;99117.00;;;18.57;100.00
29877;BME280;16750;49.002;9.204;2022-07-29T00:18:04;99124.94;;;18.57;100.00
29877;BME280;16750;49.002;9.204;2022-07-29T00:20:29;99118.69;;;18.52;100.00
29877;BME280;16750;49.002;9.204;2022-07-29T00:22:55;99094.63;;;18.33;100.00
29877;BME280;16750;49.002;9.204;2022-07-29T00:25:20;99069.75;;;18.21;100.00
29877;BME280;16750;49.002;9.204;2022-07-29T00:27:45;99066.38;;;18.31;100.00
29877;BME280;16750;49.002;9.204;2022-07-29T00:30:11;99069.25;;;18.45;100.00
29877;BME280;16750;49.002;9.204;2022-07-29T00:32:37;99089.78;;;18.63;100.00
29877;BME280;16750;49.002;9.204;2022-07-29T00:35:03;99043.59;;;18.39;100.00
29877;BME280;16750;49.002;9.204;2022-07-29T00:37:47;99096.91;;;18.67;100.00
29877;BME280;16750;49.002;9.204;2022-07-29T00:40:13;99097.75;;;18.66;100.00
29877;BME280;16750;49.002;9.204;2022-07-29T00:42:56;99093.28;;;18.62;100.00
29877;BME280;16750;49.002;9.204;2022-07-29T00:45:22;99042.59;;;18.31;100.00
29877;BME280;16750;49.002;9.204;2022-07-29T00:47:47;99094.97;;;18.57;100.00
29877;BME280;16750;49.002;9.204;2022-07-29T00:50:13;99089.66;;;18.55;100.00
29877;BME280;16750;49.002;9.204;2022-07-29T00:52:40;99096.81;;;18.61;100.00
29877;BME280;16750;49.002;9.204;2022-07-29T00:55:08;99092.38;;;18.60;100.00
29877;BME280;16750;49.002;9.204;2022-07-29T00:57:34;99097.53;;;18.52;100.00
29877;BME280;16750;49.002;9.204;2022-07-29T01:00:00;99094.78;;;18.46;100.00
29877;BME280;16750;49.002;9.204;2022-07-29T01:02:26;99087.69;;;18.42;100.00
29877;BME280;16750;49.002;9.204;2022-07-29T01:04:52;99077.88;;;18.33;100.00
29877;BME280;16750;49.002;9.204;2022-07-29T01:07:18;99079.59;;;18.31;100.00
29877;BME280;16750;49.002;9.204;2022-07-29T01:09:45;99088.31;;;18.24;100.00
29877;BME280;16750;49.002;9.204;2022-07-29T01:12:13;99090.88;;;18.19;100.00
29877;BME280;16750;49.002;9.204;2022-07-29T01:14:39;99092.50;;;18.11;100.00
29877;BME280;16750;49.002;9.204;2022-07-29T01:17:25;99092.34;;;18.03;100.00
29877;BME280;16750;49.002;9.204;2022-07-29T01:22:27;99092.41;;;18.05;100.00
29877;BME280;16750;49.002;9.204;2022-07-29T01:25:17;99093.31;;;18.07;100.00
29877;BME280;16750;49.002;9.204;2022-07-29T01:30:24;99090.50;;;17.98;100.00
29877;BME280;16750;49.002;9.204;2022-07-29T01:32:55;99069.88;;;17.80;100.00
29877;BME280;16750;49.002;9.204;2022-07-29T01:35:38;99084.16;;;17.88;100.00
29877;BME280;16750;49.002;9.204;2022-07-29T01:38:17;99081.59;;;17.91;100.00
29877;BME280;16750;49.002;9.204;2022-07-29T01:40:52;99078.97;;;17.92;100.00
29877;BME280;16750;49.002;9.204;2022-07-29T01:43:26;99073.69;;;17.92;100.00
29877;BME280;16750;49.002;9.204;2022-07-29T01:46:09;99066.47;;;17.84;100.00
29877;BME280;16750;49.002;9.204;2022-07-29T01:48:53;99077.84;;;17.81;100.00
29877;BME280;16750;49.002;9.204;2022-07-29T01:51:24;99058.91;;;17.57;100.00
29877;BME280;16750;49.002;9.204;2022-07-29T01:54:10;99041.94;;;17.42;100.00
29877;BME280;16750;49.002;9.204;2022-07-29T01:56:39;99077.44;;;17.58;100.00
29877;BME280;16750;49.002;9.204;2022-07-29T01:59:07;99056.03;;;17.43;100.00
29877;BME280;16750;49.002;9.204;2022-07-29T02:01:34;99080.13;;;17.61;100.00
29877;BME280;16750;49.002;9.204;2022-07-29T02:04:05;99074.81;;;17.60;100.00
29877;BME280;16750;49.002;9.204;2022-07-29T02:06:33;99064.16;;;17.53;100.00
29877;BME280;16750;49.002;9.204;2022-07-29T02:09:01;99073.84;;;17.54;100.00
29877;BME280;16750;49.002;9.204;2022-07-29T02:11:30;99043.53;;;17.32;100.00
29877;BME280;16750;49.002;9.204;2022-07-29T02:13:57;99052.38;;;17.34;100.00
29877;BME280;16750;49.002;9.204;2022-07-29T02:16:23;99053.97;;;17.26;100.00
29877;BME280;16750;49.002;9.204;2022-07-29T02:18:52;99070.94;;;17.41;100.00
29877;BME280;16750;49.002;9.204;2022-07-29T02:21:21;99077.09;;;17.41;100.00
29877;BME280;16750;49.002;9.204;2022-07-29T02:23:48;99059.34;;;17.32;100.00
29877;BME280;16750;49.002;9.204;2022-07-29T02:26:17;99064.56;;;17.29;100.00
29877;BME280;16750;49.002;9.204;2022-07-29T02:28:43;99067.28;;;17.34;100.00
29877;BME280;16750;49.002;9.204;2022-07-29T02:31:10;99067.47;;;17.43;100.00
29877;BME280;16750;49.002;9.204;2022-07-29T02:33:38;99052.47;;;17.41;100.00
29877;BME280;16750;49.002;9.204;2022-07-29T02:36:06;99066.53;;;17.40;100.00
29877;BME280;16750;49.002;9.204;2022-07-29T02:38:33;99058.31;;;17.24;100.00
29877;BME280;16750;49.002;9.204;2022-07-29T02:44:10;99060.78;;;17.17;100.00
29877;BME280;16750;49.002;9.204;2022-07-29T02:46:42;99059.03;;;17.17;100.00
29877;BME280;16750;49.002;9.204;2022-07-29T02:49:10;99063.34;;;17.12;100.00
29877;BME280;16750;49.002;9.204;2022-07-29T02:52:16;99063.31;;;17.10;100.00
29877;BME280;16750;49.002;9.204;2022-07-29T02:57:21;99058.03;;;17.10;100.00
29877;BME280;16750;49.002;9.204;2022-07-29T02:59:50;99059.69;;;17.07;100.00
29877;BME280;16750;49.002;9.204;2022-07-29T03:02:16;99042.78;;;16.96;100.00
29877;BME280;16750;49.002;9.204;2022-07-29T03:04:43;99034.72;;;16.88;100.00
29877;BME280;16750;49.002;9.204;2022-07-29T03:07:11;99045.47;;;16.99;100.00
29877;BME280;16750;49.002;9.204;2022-07-29T03:09:38;99050.78;;;17.00;100.00
29877;BME280;16750;49.002;9.204;2022-07-29T03:12:07;99041.78;;;16.90;100.00
29877;BME280;16750;49.002;9.204;2022-07-29T03:14:33;99058.66;;;16.99;100.00
29877;BME280;16750;49.002;9.204;2022-07-29T03:16:59;99050.78;;;17.00;100.00
29877;BME280;16750;49.002;9.204;2022-07-29T03:19:25;99056.94;;;17.01;100.00
29877;BME280;16750;49.002;9.204;2022-07-29T03:21:51;99048.97;;;16.98;100.00
29877;BME280;16750;49.002;9.204;2022-07-29T03:24:34;99055.09;;;16.97;100.00
29877;BME280;16750;49.002;9.204;2022-07-29T03:27:00;99061.13;;;16.89;100.00
29877;BME280;16750;49.002;9.204;2022-07-29T03:29:27;99043.28;;;16.79;100.00
29877;BME280;16750;49.002;9.204;2022-07-29T03:31:53;99043.41;;;16.84;100.00
29877;BME280;16750;49.002;9.204;2022-07-29T03:34:18;99055.88;;;16.91;100.00
29877;BME280;16750;49.002;9.204;2022-07-29T03:36:44;99051.41;;;16.88;100.00
29877;BME280;16750;49.002;9.204;2022-07-29T03:39:10;99057.59;;;16.89;100.00
29877;BME280;16750;49.002;9.204;2022-07-29T03:41:40;99033.53;;;16.75;100.00
29877;BME280;16750;49.002;9.204;2022-07-29T03:44:07;99020.28;;;16.70;100.00
29877;BME280;16750;49.002;9.204;2022-07-29T03:46:35;99059.44;;;16.93;100.00
29877;BME280;16750;49.002;9.204;2022-07-29T03:49:02;99018.38;;;16.65;100.00
29877;BME280;16750;49.002;9.204;2022-07-29T03:51:29;99007.72;;;16.59;100.00
29877;BME280;16750;49.002;9.204;2022-07-29T03:53:55;99069.03;;;16.89;100.00
29877;BME280;16750;49.002;9.204;2022-07-29T03:56:22;99049.38;;;16.77;100.00
29877;BME280;16750;49.002;9.204;2022-07-29T03:58:50;99043.19;;;16.76;100.00
29877;BME280;16750;49.002;9.204;2022-07-29T04:01:17;99062.09;;;16.94;100.00
29877;BME280;16750;49.002;9.204;2022-07-29T04:03:44;99022.19;;;16.79;100.00
29877;BME280;16750;49.002;9.204;2022-07-29T04:06:12;99058.94;;;17.12;100.00
29877;BME280;16750;49.002;9.204;2022-07-29T04:08:38;99059.19;;;17.25;100.00
29877;BME280;16750;49.002;9.204;2022-07-29T04:11:04;99062.84;;;17.31;100.00
29877;BME280;16750;49.002;9.204;2022-07-29T04:13:31;99069.22;;;17.43;100.00
29877;BME280;16750;49.002;9.204;2022-07-29T04:15:57;99041.84;;;17.38;100.00
29877;BME280;16750;49.002;9.204;2022-07-29T04:18:22;99072.16;;;17.58;100.00
29877;BME280;16750;49.002;9.204;2022-07-29T04:20:48;99079.31;;;17.64;100.00
29877;BME280;16750;49.002;9.204;2022-07-29T04:23:13;99078.50;;;17.68;100.00
29877;BME280;16750;49.002;9.204;2022-07-29T04:25:40;99083.09;;;17.80;100.00
29877;BME280;16750;49.002;9.204;2022-07-29T04:28:06;99076.19;;;17.85;100.00
29877;BME280;16750;49.002;9.204;2022-07-29T04:30:33;99072.78;;;17.92;100.00
29877;BME280;16750;49.002;9.204;2022-07-29T04:33:00;99067.59;;;17.97;100.00
29877;BME280;16750;49.002;9.204;2022-07-29T04:35:27;99076.75;;;18.19;100.00
29877;BME280;16750;49.002;9.204;2022-07-29T04:37:52;99080.41;;;18.27;100.00
29877;BME280;16750;49.002;9.204;2022-07-29T04:40:18;99062.88;;;18.30;100.00
29877;BME280;16750;49.002;9.204;2022-07-29T04:42:43;99044.44;;;18.33;100.00
29877;BME280;16750;49.002;9.204;2022-07-29T04:45:09;99085.28;;;18.57;100.00
29877;BME280;16750;49.002;9.204;2022-07-29T04:47:34;99083.66;;;18.65;100.00
29877;BME280;16750;49.002;9.204;2022-07-29T04:50:00;99085.53;;;18.74;100.00
29877;BME280;16750;49.002;9.204;2022-07-29T04:52:25;99092.72;;;18.80;100.00
29877;BME280;16750;49.002;9.204;2022-07-29T04:54:51;99065.25;;;18.74;100.00
29877;BME280;16750;49.002;9.204;2022-07-29T04:57:16;99077.72;;;18.80;100.00
29877;BME280;16750;49.002;9.204;2022-07-29T04:59:42;99083.97;;;18.87;100.00
29877;BME280;16750;49.002;9.204;2022-07-29T05:02:07;99067.97;;;18.78;100.00
29877;BME280;16750;49.002;9.204;2022-07-29T05:04:32;99061.91;;;18.85;100.00
29877;BME280;16750;49.002;9.204;2022-07-29T05:06:58;99089.47;;;19.04;100.00
29877;BME280;16750;49.002;9.204;2022-07-29T05:09:23;99093.22;;;19.20;100.00
29877;BME280;16750;49.002;9.204;2022-07-29T05:11:49;99088.66;;;19.80;100.00
29877;BME280;16750;49.002;9.204;2022-07-29T05:14:14;99077.44;;;20.08;100.00
29877;BME280;16750;49.002;9.204;2022-07-29T05:16:40;99091.59;;;20.12;100.00
29877;BME280;16750;49.002;9.204;2022-07-29T05:19:05;99089.78;;;20.03;100.00
29877;BME280;16750;49.002;9.204;2022-07-29T05:21:31;99067.47;;;19.81;100.00
29877;BME280;16750;49.002;9.204;2022-07-29T05:23:57;99087.91;;;19.93;100.00
29877;BME280;16750;49.002;9.204;2022-07-29T05:26:22;99098.50;;;19.96;100.00
29877;BME280;16750;49.002;9.204;2022-07-29T05:28:48;99089.63;;;19.89;100.00
29877;BME280;16750;49.002;9.204;2022-07-29T05:31:13;99097.66;;;19.97;100.00
29877;BME280;16750;49.002;9.204;2022-07-29T05:33:40;99106.63;;;20.11;100.00
29877;BME280;16750;49.002;9.204;2022-07-29T05:36:06;99098.81;;;20.28;100.00
29877;BME280;16750;49.002;9.204;2022-07-29T05:38:32;99109.50;;;20.42;100.00
29877;BME280;16750;49.002;9.204;2022-07-29T05:40:58;99106.09;;;20.55;100.00
29877;BME280;16750;49.002;9.204;2022-07-29T05:43:24;99059.16;;;20.44;100.00
29877;BME280;16750;49.002;9.204;2022-07-29T05:45:49;99100.97;;;20.79;100.00
29877;BME280;16750;49.002;9.204;2022-07-29T05:48:15;99079.75;;;20.80;100.00
29877;BME280;16750;49.002;9.204;2022-07-29T05:50:40;99109.97;;;21.10;100.00
29877;BME280;16750;49.002;9.204;2022-07-29T05:53:05;99111.78;;;21.11;100.00
29877;BME280;16750;49.002;9.204;2022-07-29T05:55:31;99113.50;;;21.10;100.00
29877;BME280;16750;49.002;9.204;2022-07-29T05:57:56;99114.47;;;21.26;100.00
29877;BME280;16750;49.002;9.204;2022-07-29T06:00:22;99107.44;;;21.34;100.00
29877;BME280;16750;49.002;9.204;2022-07-29T06:02:47;99105.78;;;21.52;100.00
29877;BME280;16750;49.002;9.204;2022-07-29T06:05:13;99112.00;;;21.57;100.00
29877;BME280;16750;49.002;9.204;2022-07-29T06:07:40;99131.47;;;21.58;100.00
29877;BME280;16750;49.002;9.204;2022-07-29T06:10:06;99112.84;;;21.48;100.00
29877;BME280;16750;49.002;9.204;2022-07-29T06:12:31;99125.28;;;21.60;100.00
29877;BME280;16750;49.002;9.204;2022-07-29T06:14:57;99101.31;;;21.45;100.00
29877;BME280;16750;49.002;9.204;2022-07-29T06:17:22;99139.50;;;21.77;100.00
29877;BME280;16750;49.002;9.204;2022-07-29T06:19:48;99134.22;;;21.90;100.00
29877;BME280;16750;49.002;9.204;2022-07-29T06:22:15;99134.25;;;22.02;100.00
29877;BME280;16750;49.002;9.204;2022-07-29T06:24:41;99126.28;;;22.04;100.00
29877;BME280;16750;49.002;9.204;2022-07-29T06:27:10;99135.13;;;22.20;100.00
29877;BME280;16750;49.002;9.204;2022-07-29T06:29:35;99148.50;;;22.41;100.00
29877;BME280;16750;49.002;9.204;2022-07-29T06:32:01;99137.84;;;22.40;100.00
29877;BME280;16750;49.002;9.204;2022-07-29T06:34:27;99138.75;;;22.60;100.00
29877;BME280;16750;49.002;9.204;2022-07-29T06:36:52;99131.63;;;22.61;100.00
29877;BME280;16750;49.002;9.204;2022-07-29T06:39:18;99136.03;;;22.75;100.00
29877;BME280;16750;49.002;9.204;2022-07-29T06:41:47;99144.00;;;22.98;100.00
29877;BME280;16750;49.002;9.204;2022-07-29T06:44:13;99142.22;;;23.13;100.00
29877;BME280;16750;49.002;9.204;2022-07-29T06:46:39;99148.38;;;23.35;100.00
29877;BME280;16750;49.002;9.204;2022-07-29T06:49:04;99148.25;;;23.64;100.00
29877;BME280;16750;49.002;9.204;2022-07-29T06:51:29;99157.09;;;23.80;100.00
29877;BME280;16750;49.002;9.204;2022-07-29T06:53:55;99151.63;;;24.02;100.00
29877;BME280;16750;49.002;9.204;2022-07-29T06:56:22;99162.97;;;24.36;100.00
29877;BME280;16750;49.002;9.204;2022-07-29T06:58:48;99148.69;;;24.42;100.00
29877;BME280;16750;49.002;9.204;2022-07-29T07:01:13;99161.00;;;24.63;100.00
29877;BME280;16750;49.002;9.204;2022-07-29T07:03:39;99136.06;;;24.65;100.00
29877;BME280;16750;49.002;9.204;2022-07-29T07:06:04;99157.38;;;24.71;100.00
29877;BME280;16750;49.002;9.204;2022-07-29T07:08:30;99159.97;;;24.81;100.00
29877;BME280;16750;49.002;9.204;2022-07-29T07:10:55;99154.53;;;24.88;100.00
29877;BME280;16750;49.002;9.204;2022-07-29T07:13:22;99122.28;;;25.07;100.00
29877;BME280;16750;49.002;9.204;2022-07-29T07:15:48;99147.75;;;25.42;100.00
29877;BME280;16750;49.002;9.204;2022-07-29T07:18:14;99165.38;;;25.58;100.00
29877;BME280;16750;49.002;9.204;2022-07-29T07:20:41;99121.97;;;25.36;99.37
29877;BME280;16750;49.002;9.204;2022-07-29T07:23:07;99143.91;;;25.66;100.00
29877;BME280;16750;49.002;9.204;2022-07-29T07:25:32;99155.41;;;25.69;94.06
29877;BME280;16750;49.002;9.204;2022-07-29T07:27:57;99168.63;;;25.82;92.51
29877;BME280;16750;49.002;9.204;2022-07-29T07:30:23;99171.22;;;25.89;91.74
29877;BME280;16750;49.002;9.204;2022-07-29T07:32:48;99170.41;;;25.81;93.58
29877;BME280;16750;49.002;9.204;2022-07-29T07:35:14;99136.84;;;25.58;92.73
29877;BME280;16750;49.002;9.204;2022-07-29T07:37:40;99179.09;;;26.00;91.33
29877;BME280;16750;49.002;9.204;2022-07-29T07:40:07;99172.69;;;26.13;87.35
29877;BME280;16750;49.002;9.204;2022-07-29T07:42:32;99155.53;;;26.27;86.15
29877;BME280;16750;49.002;9.204;2022-07-29T07:44:58;99170.44;;;26.45;84.03
29877;BME280;16750;49.002;9.204;2022-07-29T07:47:24;99175.59;;;26.55;84.72
29877;BME280;16750;49.002;9.204;2022-07-29T07:49:50;99150.75;;;26.47;83.87
29877;BME280;16750;49.002;9.204;2022-07-29T07:52:17;99165.75;;;26.56;83.81
29877;BME280;16750;49.002;9.204;2022-07-29T07:54:43;99165.84;;;26.51;84.52
29877;BME280;16750;49.002;9.204;2022-07-29T07:57:10;99133.09;;;26.35;82.76
29877;BME280;16750;49.002;9.204;2022-07-29T07:59:36;99159.25;;;26.75;81.10
29877;BME280;16750;49.002;9.204;2022-07-29T08:02:01;99162.72;;;26.81;80.66
29877;BME280;16750;49.002;9.204;2022-07-29T08:04:27;99158.81;;;26.98;76.34
29877;BME280;16750;49.002;9.204;2022-07-29T08:06:53;99172.00;;;27.11;77.07
29877;BME280;16750;49.002;9.204;2022-07-29T08:09:23;99135.09;;;27.27;75.38
29877;BME280;16750;49.002;9.204;2022-07-29T08:11:49;99165.66;;;27.62;72.70
29877;BME280;16750;49.002;9.204;2022-07-29T08:14:15;99175.69;;;27.95;70.16
29877;BME280;16750;49.002;9.204;2022-07-29T08:16:40;99157.41;;;28.13;68.36
29877;BME280;16750;49.002;9.204;2022-07-29T08:19:07;99176.25;;;28.49;65.69
29877;BME280;16750;49.002;9.204;2022-07-29T08:21:32;99176.00;;;28.22;65.14
29877;BME280;16750;49.002;9.204;2022-07-29T08:23:58;99179.03;;;28.44;66.60
29877;BME280;16750;49.002;9.204;2022-07-29T08:26:43;99176.00;;;28.61;63.54
29877;BME280;16750;49.002;9.204;2022-07-29T08:29:09;99178.44;;;28.70;63.21
29877;BME280;16750;49.002;9.204;2022-07-29T08:31:35;99175.47;;;29.17;60.61
29877;BME280;16750;49.002;9.204;2022-07-29T08:34:02;99177.47;;;29.42;59.35
29877;BME280;16750;49.002;9.204;2022-07-29T08:36:28;99179.34;;;29.71;57.65
29877;BME280;16750;49.002;9.204;2022-07-29T08:38:54;99181.34;;;29.94;55.44
29877;BME280;16750;49.002;9.204;2022-07-29T08:41:19;99182.13;;;29.66;56.25
29877;BME280;16750;49.002;9.204;2022-07-29T08:43:45;99175.13;;;29.29;57.18
29877;BME280;16750;49.002;9.204;2022-07-29T08:46:11;99167.19;;;29.56;56.98
29877;BME280;16750;49.002;9.204;2022-07-29T08:48:36;99158.84;;;29.65;55.67
29877;BME280;16750;49.002;9.204;2022-07-29T08:51:02;99150.69;;;29.68;54.22
29877;BME280;16750;49.002;9.204;2022-07-29T08:53:28;99179.06;;;29.49;55.16
29877;BME280;16750;49.002;9.204;2022-07-29T08:55:54;99148.28;;;28.93;56.67
29877;BME280;16750;49.002;9.204;2022-07-29T08:58:20;99140.75;;;28.36;58.69
29877;BME280;16750;49.002;9.204;2022-07-29T09:00:52;99143.81;;;28.58;58.79
29877;BME280;16750;49.002;9.204;2022-07-29T09:03:20;99166.47;;;29.18;58.00
29877;BME280;16750;49.002;9.204;2022-07-29T09:05:46;99169.22;;;29.48;56.88
29877;BME280;16750;49.002;9.204;2022-07-29T09:08:16;99172.50;;;29.26;56.04
29877;BME280;16750;49.002;9.204;2022-07-29T09:10:42;99173.63;;;29.19;57.09
29877;BME280;16750;49.002;9.204;2022-07-29T09:13:08;99171.84;;;29.49;55.74
29877;BME280;16750;49.002;9.204;2022-07-29T09:15:33;99168.13;;;29.86;54.57
29877;BME280;16750;49.002;9.204;2022-07-29T09:17:59;99134.13;;;29.84;54.25
29877;BME280;16750;49.002;9.204;2022-07-29T09:20:26;99166.25;;;29.57;55.44
29877;BME280;16750;49.002;9.204;2022-07-29T09:23:12;99170.41;;;29.37;57.01
29877;BME280;16750;49.002;9.204;2022-07-29T09:25:40;99167.47;;;29.78;55.75
29877;BME280;16750;49.002;9.204;2022-07-29T09:28:16;99163.34;;;29.96;54.04
29877;BME280;16750;49.002;9.204;2022-07-29T09:30:51;99172.38;;;30.23;53.59
29877;BME280;16750;49.002;9.204;2022-07-29T09:33:18;99164.44;;;30.18;53.25
29877;BME280;16750;49.002;9.204;2022-07-29T09:35:43;99168.91;;;29.90;53.72
29877;BME280;16750;49.002;9.204;2022-07-29T09:38:13;99161.78;;;30.17;53.56
29877;BME280;16750;49.002;9.204;2022-07-29T09:40:38;99151.63;;;30.27;52.07
29877;BME280;16750;49.002;9.204;2022-07-29T09:43:11;99163.97;;;30.34;50.72
29877;BME280;16750;49.002;9.204;2022-07-29T09:45:37;99147.66;;;30.10;51.06
29877;BME280;16750;49.002;9.204;2022-07-29T09:48:19;99162.94;;;30.38;50.38
29877;BME280;16750;49.002;9.204;2022-07-29T09:50:46;99158.44;;;30.65;49.65
29877;BME280;16750;49.002;9.204;2022-07-29T09:53:36;99146.44;;;30.75;48.89
29877;BME280;16750;49.002;9.204;2022-07-29T09:56:03;99144.22;;;30.88;48.03
29877;BME280;16750;49.002;9.204;2022-07-29T09:58:28;99136.47;;;30.77;48.77
29877;BME280;16750;49.002;9.204;2022-07-29T10:00:56;99139.91;;;30.83;48.95
29877;BME280;16750;49.002;9.204;2022-07-29T10:03:22;99143.59;;;30.80;48.85
29877;BME280;16750;49.002;9.204;2022-07-29T10:06:05;99141.50;;;30.88;49.03
29877;BME280;16750;49.002;9.204;2022-07-29T10:08:31;99140.34;;;30.97;48.85
29877;BME280;16750;49.002;9.204;2022-07-29T10:11:15;99120.09;;;30.57;48.03
29877;BME280;16750;49.002;9.204;2022-07-29T10:13:42;99141.56;;;30.87;47.16
29877;BME280;16750;49.002;9.204;2022-07-29T10:16:08;99138.50;;;30.97;46.73
29877;BME280;16750;49.002;9.204;2022-07-29T10:18:34;99133.03;;;30.74;46.94
29877;BME280;16750;49.002;9.204;2022-07-29T10:21:00;99130.75;;;30.62;47.00
29877;BME280;16750;49.002;9.204;2022-07-29T10:23:27;99122.03;;;30.80;47.07
29877;BME280;16750;49.002;9.204;2022-07-29T10:25:53;99137.97;;;30.86;46.31
29877;BME280;16750;49.002;9.204;2022-07-29T10:28:19;99131.66;;;30.61;46.42
29877;BME280;16750;49.002;9.204;2022-07-29T10:30:45;99127.09;;;30.63;46.32
29877;BME280;16750;49.002;9.204;2022-07-29T10:33:26;99128.28;;;30.81;46.02
29877;BME280;16750;49.002;9.204;2022-07-29T10:36:18;99132.47;;;31.16;44.31
29877;BME280;16750;49.002;9.204;2022-07-29T10:38:55;99134.06;;;31.47;43.92
29877;BME280;16750;49.002;9.204;2022-07-29T10:44:29;99116.66;;;31.55;42.23
29877;BME280;16750;49.002;9.204;2022-07-29T10:46:55;99133.53;;;31.61;43.41
29877;BME280;16750;49.002;9.204;2022-07-29T10:49:25;99101.78;;;31.44;42.43
29877;BME280;16750;49.002;9.204;2022-07-29T10:52:03;99119.69;;;31.46;43.05
29877;BME280;16750;49.002;9.204;2022-07-29T10:57:14;99096.84;;;30.54;42.68
29877;BME280;16750;49.002;9.204;2022-07-29T10:59:42;99121.22;;;30.51;44.94
29877;BME280;16750;49.002;9.204;2022-07-29T11:07:32;99117.91;;;30.70;43.83
29877;BME280;16750;49.002;9.204;2022-07-29T11:15:03;99103.69;;;30.91;43.03
29877;BME280;16750;49.002;9.204;2022-07-29T11:22:59;99106.91;;;31.51;40.57
29877;BME280;16750;49.002;9.204;2022-07-29T11:25:25;99100.81;;;31.46;40.78
29877;BME280;16750;49.002;9.204;2022-07-29T11:27:54;99079.56;;;31.61;40.96
29877;BME280;16750;49.002;9.204;2022-07-29T11:30:51;99090.78;;;31.73;38.92
29877;BME280;16750;49.002;9.204;2022-07-29T11:33:30;99060.78;;;31.57;39.55
29877;BME280;16750;49.002;9.204;2022-07-29T11:36:12;99098.50;;;32.06;39.67
29877;BME280;16750;49.002;9.204;2022-07-29T11:38:38;99084.19;;;32.04;39.33
29877;BME280;16750;49.002;9.204;2022-07-29T11:43:48;99105.00;;;32.45;38.80
29877;BME280;16750;49.002;9.204;2022-07-29T11:46:14;99102.34;;;32.43;38.93
29877;BME280;16750;49.002;9.204;2022-07-29T11:48:43;99111.34;;;32.44;38.86
29877;BME280;16750;49.002;9.204;2022-07-29T11:51:10;99085.84;;;32.29;38.83
29877;BME280;16750;49.002;9.204;2022-07-29T11:53:37;99107.94;;;32.16;38.48
29877;BME280;16750;49.002;9.204;2022-07-29T11:56:04;99104.44;;;31.45;39.81
29877;BME280;16750;49.002;9.204;2022-07-29T11:58:33;99104.41;;;31.22;39.94
29877;BME280;16750;49.002;9.204;2022-07-29T12:01:00;99093.47;;;31.01;40.70
29877;BME280;16750;49.002;9.204;2022-07-29T12:03:27;99055.34;;;30.60;40.89
29877;BME280;16750;49.002;9.204;2022-07-29T12:05:52;99089.75;;;30.78;41.50
29877;BME280;16750;49.002;9.204;2022-07-29T12:08:21;99077.38;;;30.98;40.91
29877;BME280;16750;49.002;9.204;2022-07-29T12:10:48;99087.25;;;30.99;40.03
29877;BME280;16750;49.002;9.204;2022-07-29T12:13:16;99090.69;;;31.28;40.47
29877;BME280;16750;49.002;9.204;2022-07-29T12:15:50;99084.44;;;31.51;39.14
29877;BME280;16750;49.002;9.204;2022-07-29T12:18:18;99089.38;;;31.63;38.80
29877;BME280;16750;49.002;9.204;2022-07-29T12:20:46;99087.88;;;31.54;38.75
29877;BME280;16750;49.002;9.204;2022-07-29T12:23:12;99087.72;;;31.59;38.93
29877;BME280;16750;49.002;9.204;2022-07-29T12:25:38;99091.84;;;31.91;38.54
29877;BME280;16750;49.002;9.204;2022-07-29T12:28:06;99093.72;;;32.13;38.13
29877;BME280;16750;49.002;9.204;2022-07-29T12:30:44;99087.09;;;32.20;37.83
29877;BME280;16750;49.002;9.204;2022-07-29T12:33:17;99098.25;;;32.12;37.49
29877;BME280;16750;49.002;9.204;2022-07-29T12:35:46;99092.66;;;31.93;38.57
29877;BME280;16750;49.002;9.204;2022-07-29T12:38:13;99097.66;;;31.33;42.70
29877;BME280;16750;49.002;9.204;2022-07-29T12:40:39;99096.69;;;31.11;43.66
29877;BME280;16750;49.002;9.204;2022-07-29T12:45:42;99085.69;;;31.41;44.09
29877;BME280;16750;49.002;9.204;2022-07-29T12:48:08;99092.47;;;31.52;44.15
29877;BME280;16750;49.002;9.204;2022-07-29T12:50:35;99064.88;;;31.21;45.31
29877;BME280;16750;49.002;9.204;2022-07-29T12:53:11;99095.34;;;31.23;46.02
29877;BME280;16750;49.002;9.204;2022-07-29T12:55:42;99098.41;;;31.37;45.91
29877;BME280;16750;49.002;9.204;2022-07-29T12:58:07;99090.72;;;31.51;44.66
29877;BME280;16750;49.002;9.204;2022-07-29T13:00:33;99102.03;;;31.61;44.79
29877;BME280;16750;49.002;9.204;2022-07-29T13:02:59;99100.09;;;31.65;43.67
29877;BME280;16750;49.002;9.204;2022-07-29T13:05:44;99107.84;;;31.74;43.79
29877;BME280;16750;49.002;9.204;2022-07-29T13:08:11;99103.19;;;32.01;43.34
29877;BME280;16750;49.002;9.204;2022-07-29T13:10:37;99089.44;;;32.07;43.06
29877;BME280;16750;49.002;9.204;2022-07-29T13:13:07;99100.59;;;32.42;42.05
29877;BME280;16750;49.002;9.204;2022-07-29T13:15:35;99104.44;;;32.59;42.09
29877;BME280;16750;49.002;9.204;2022-07-29T13:18:01;99114.84;;;32.68;42.13
29877;BME280;16750;49.002;9.204;2022-07-29T13:20:28;99122.97;;;32.88;41.64
29877;BME280;16750;49.002;9.204;2022-07-29T13:22:58;99114.22;;;32.83;41.40
29877;BME280;16750;49.002;9.204;2022-07-29T13:25:27;99125.34;;;32.75;41.09
29877;BME280;16750;49.002;9.204;2022-07-29T13:27:53;99120.66;;;32.59;41.30
29877;BME280;16750;49.002;9.204;2022-07-29T13:30:20;99127.19;;;32.75;41.20
29877;BME280;16750;49.002;9.204;2022-07-29T13:32:46;99122.53;;;32.79;40.91
29877;BME280;16750;49.002;9.204;2022-07-29T13:35:12;99134.88;;;32.84;40.71
29877;BME280;16750;49.002;9.204;2022-07-29T13:37:38;99127.03;;;32.98;40.38